sensor_id;sensor_type;location;lat;lon;timestamp;pressure;altitude;pressure_sealevel;temperature;humidity
33949;BME280;20229;49.856;19.030;2022-11-20T00:02:45;101338.68;;;-2.49;87.12
33949;BME280;20229;49.856;19.030;2022-11-20T00:08:08;101335.95;;;-2.55;87.25
33949;BME280;20229;49.856;19.030;2022-11-20T00:13:11;101331.53;;;-2.51;87.44
33949;BME280;20229;49.856;19.030;2022-11-20T00:18:34;101327.95;;;-2.56;87.51
33949;BME280;20229;49.856;19.030;2022-11-20T00:23:37;101335.95;;;-2.55;87.33
33949;BME280;20229;49.856;19.030;2022-11-20T00:29:01;101327.00;;;-2.63;87.45
33949;BME280;20229;49.856;19.030;2022-11-20T00:34:04;101329.65;;;-2.66;87.59
33949;BME280;20229;49.856;19.030;2022-11-20T00:39:26;101328.67;;;-2.77;87.44
33949;BME280;20229;49.856;19.030;2022-11-20T00:44:29;101321.52;;;-2.80;87.50
33949;BME280;20229;49.856;19.030;2022-11-20T00:49:52;101320.55;;;-2.93;87.34
33949;BME280;20229;49.856;19.030;2022-11-20T00:54:55;101311.62;;;-2.96;87.41
33949;BME280;20229;49.856;19.030;2022-11-20T01:00:18;101307.93;;;-3.09;87.33
33949;BME280;20229;49.856;19.030;2022-11-20T01:05:21;101306.12;;;-3.13;87.22
33949;BME280;20229;49.856;19.030;2022-11-20T01:10:44;101293.56;;;-3.23;87.38
33949;BME280;20229;49.856;19.030;2022-11-20T01:15:47;101291.75;;;-3.27;87.24
33949;BME280;20229;49.856;19.030;2022-11-20T01:21:19;101298.77;;;-3.37;87.39
33949;BME280;20229;49.856;19.030;2022-11-20T01:26:30;101297.87;;;-3.39;87.61
33949;BME280;20229;49.856;19.030;2022-11-20T01:31:37;101288.84;;;-3.50;87.46
33949;BME280;20229;49.856;19.030;2022-11-20T01:36:41;101283.47;;;-3.53;87.48
33949;BME280;20229;49.856;19.030;2022-11-20T01:42:01;101280.69;;;-3.67;87.33
33949;BME280;20229;49.856;19.030;2022-11-20T01:47:25;101274.42;;;-3.71;87.36
33949;BME280;20229;49.856;19.030;2022-11-20T01:52:34;101276.97;;;-3.81;87.12
33949;BME280;20229;49.856;19.030;2022-11-20T01:57:40;101276.01;;;-3.87;87.24
33949;BME280;20229;49.856;19.030;2022-11-20T02:02:58;101283.89;;;-3.96;87.35
33949;BME280;20229;49.856;19.030;2022-11-20T02:08:05;101281.21;;;-3.99;87.06
33949;BME280;20229;49.856;19.030;2022-11-20T02:13:21;101295.27;;;-4.11;87.11
33949;BME280;20229;49.856;19.030;2022-11-20T02:18:38;101297.92;;;-4.12;87.41
33949;BME280;20229;49.856;19.030;2022-11-20T02:29:02;101304.90;;;-4.23;87.00
33949;BME280;20229;49.856;19.030;2022-11-20T02:34:13;101316.32;;;-4.32;87.26
33949;BME280;20229;49.856;19.030;2022-11-20T02:39:16;101313.64;;;-4.34;87.25
33949;BME280;20229;49.856;19.030;2022-11-20T02:44:39;101316.17;;;-4.43;87.30
33949;BME280;20229;49.856;19.030;2022-11-20T02:49:43;101301.05;;;-4.44;87.18
33949;BME280;20229;49.856;19.030;2022-11-20T02:55:06;101302.73;;;-4.52;87.35
33949;BME280;20229;49.856;19.030;2022-11-20T03:00:11;101299.14;;;-4.54;87.46
33949;BME280;20229;49.856;19.030;2022-11-20T03:05:31;101305.25;;;-4.60;87.47
33949;BME280;20229;49.856;19.030;2022-11-20T03:10:35;101307.02;;;-4.60;87.62
33949;BME280;20229;49.856;19.030;2022-11-20T03:15:57;101302.48;;;-4.67;87.62
33949;BME280;20229;49.856;19.030;2022-11-20T03:21:01;101304.25;;;-4.68;87.50
33949;BME280;20229;49.856;19.030;2022-11-20T03:26:25;101310.37;;;-4.75;87.55
33949;BME280;20229;49.856;19.030;2022-11-20T03:31:34;101300.59;;;-4.76;87.24
33949;BME280;20229;49.856;19.030;2022-11-20T03:36:49;101293.34;;;-4.85;87.57
33949;BME280;20229;49.856;19.030;2022-11-20T03:41:53;101296.04;;;-4.83;87.54
33949;BME280;20229;49.856;19.030;2022-11-20T03:47:16;101299.48;;;-4.90;87.75
33949;BME280;20229;49.856;19.030;2022-11-20T03:52:19;101295.94;;;-4.89;87.86
33949;BME280;20229;49.856;19.030;2022-11-20T03:57:42;101304.71;;;-4.95;87.75
33949;BME280;20229;49.856;19.030;2022-11-20T04:02:45;101301.16;;;-4.95;87.75
33949;BME280;20229;49.856;19.030;2022-11-20T04:08:08;101293.05;;;-5.03;87.86
33949;BME280;20229;49.856;19.030;2022-11-20T04:13:11;101282.44;;;-5.01;87.74
33949;BME280;20229;49.856;19.030;2022-11-20T04:18:34;101282.41;;;-5.03;88.31
33949;BME280;20229;49.856;19.030;2022-11-20T04:23:38;101276.42;;;-4.88;88.70
33949;BME280;20229;49.856;19.030;2022-11-20T04:29:00;101271.29;;;-4.76;89.27
33949;BME280;20229;49.856;19.030;2022-11-20T04:34:07;101270.61;;;-4.61;89.07
33949;BME280;20229;49.856;19.030;2022-11-20T04:39:26;101271.55;;;-4.56;89.18
33949;BME280;20229;49.856;19.030;2022-11-20T04:44:29;101277.96;;;-4.45;89.25
33949;BME280;20229;49.856;19.030;2022-11-20T04:49:52;101267.35;;;-4.39;89.40
33949;BME280;20229;49.856;19.030;2022-11-20T04:54:55;101271.09;;;-4.27;89.49
33949;BME280;20229;49.856;19.030;2022-11-20T05:00:18;101255.09;;;-4.26;89.62
33949;BME280;20229;49.856;19.030;2022-11-20T05:05:21;101257.85;;;-4.18;89.56
33949;BME280;20229;49.856;19.030;2022-11-20T05:10:44;101254.26;;;-4.23;89.58
33949;BME280;20229;49.856;19.030;2022-11-20T05:15:48;101264.07;;;-4.19;89.49
33949;BME280;20229;49.856;19.030;2022-11-20T05:21:11;101251.58;;;-4.23;89.57
33949;BME280;20229;49.856;19.030;2022-11-20T05:26:18;101239.16;;;-4.21;89.32
33949;BME280;20229;49.856;19.030;2022-11-20T05:31:36;101234.57;;;-4.33;89.21
33949;BME280;20229;49.856;19.030;2022-11-20T05:36:40;101231.91;;;-4.35;89.23
33949;BME280;20229;49.856;19.030;2022-11-20T05:42:02;101230.93;;;-4.41;89.25
33949;BME280;20229;49.856;19.030;2022-11-20T05:47:18;101231.81;;;-4.41;89.56
33949;BME280;20229;49.856;19.030;2022-11-20T05:52:29;101229.07;;;-4.45;89.87
33949;BME280;20229;49.856;19.030;2022-11-20T05:57:32;101226.44;;;-4.44;89.88
33949;BME280;20229;49.856;19.030;2022-11-20T06:02:54;101232.57;;;-4.49;89.67
33949;BME280;20229;49.856;19.030;2022-11-20T06:07:57;101229.91;;;-4.51;89.66
33949;BME280;20229;49.856;19.030;2022-11-20T06:13:20;101227.15;;;-4.59;89.53
33949;BME280;20229;49.856;19.030;2022-11-20T06:18:26;101224.48;;;-4.57;89.51
33949;BME280;20229;49.856;19.030;2022-11-20T06:23:47;101219.98;;;-4.63;89.46
33949;BME280;20229;49.856;19.030;2022-11-20T06:28:51;101217.32;;;-4.61;89.55
33949;BME280;20229;49.856;19.030;2022-11-20T06:34:12;101207.52;;;-4.65;89.38
33949;BME280;20229;49.856;19.030;2022-11-20T06:39:15;101206.68;;;-4.61;89.41
33949;BME280;20229;49.856;19.030;2022-11-20T06:44:38;101202.19;;;-4.65;89.33
33949;BME280;20229;49.856;19.030;2022-11-20T06:49:42;101197.75;;;-4.63;89.38
33949;BME280;20229;49.856;19.030;2022-11-20T06:55:05;101194.23;;;-4.62;89.38
33949;BME280;20229;49.856;19.030;2022-11-20T07:00:09;101189.95;;;-4.49;89.19
33949;BME280;20229;49.856;19.030;2022-11-20T07:05:30;101195.35;;;-4.42;89.50
33949;BME280;20229;49.856;19.030;2022-11-20T07:10:34;101187.60;;;-4.23;89.66
33949;BME280;20229;49.856;19.030;2022-11-20T07:16:01;101196.69;;;-4.06;89.73
33949;BME280;20229;49.856;19.030;2022-11-20T07:21:10;101212.13;;;-3.74;90.20
33949;BME280;20229;49.856;19.030;2022-11-20T07:26:22;101212.36;;;-3.48;90.16
33949;BME280;20229;49.856;19.030;2022-11-20T07:31:26;101208.98;;;-3.26;89.99
33949;BME280;20229;49.856;19.030;2022-11-20T07:36:48;101218.88;;;-3.11;90.40
33949;BME280;20229;49.856;19.030;2022-11-20T07:41:51;101214.58;;;-2.92;90.36
33949;BME280;20229;49.856;19.030;2022-11-20T07:47:14;101217.34;;;-2.78;90.40
33949;BME280;20229;49.856;19.030;2022-11-20T07:52:17;101219.22;;;-2.59;90.44
33949;BME280;20229;49.856;19.030;2022-11-20T07:57:40;101224.65;;;-2.47;91.15
33949;BME280;20229;49.856;19.030;2022-11-20T08:02:44;101222.03;;;-2.30;91.24
33949;BME280;20229;49.856;19.030;2022-11-20T08:08:06;101221.20;;;-2.18;91.60
33949;BME280;20229;49.856;19.030;2022-11-20T08:13:10;101222.16;;;-2.01;91.89
33949;BME280;20229;49.856;19.030;2022-11-20T08:18:32;101222.16;;;-1.92;91.92
33949;BME280;20229;49.856;19.030;2022-11-20T08:23:35;101219.55;;;-1.76;92.02
33949;BME280;20229;49.856;19.030;2022-11-20T08:28:58;101226.72;;;-1.66;92.10
33949;BME280;20229;49.856;19.030;2022-11-20T08:34:02;101207.97;;;-1.46;92.36
33949;BME280;20229;49.856;19.030;2022-11-20T08:39:24;101203.52;;;-1.32;92.13
33949;BME280;20229;49.856;19.030;2022-11-20T08:44:27;101201.71;;;-1.10;92.04
33949;BME280;20229;49.856;19.030;2022-11-20T08:49:50;101207.07;;;-0.94;91.74
33949;BME280;20229;49.856;19.030;2022-11-20T08:54:53;101200.76;;;-0.69;90.64
33949;BME280;20229;49.856;19.030;2022-11-20T09:00:17;101200.70;;;-0.51;90.28
33949;BME280;20229;49.856;19.030;2022-11-20T09:05:20;101205.98;;;-0.32;89.14
33949;BME280;20229;49.856;19.030;2022-11-20T09:10:42;101217.61;;;-0.24;88.49
33949;BME280;20229;49.856;19.030;2022-11-20T09:15:46;101201.41;;;-0.06;88.57
33949;BME280;20229;49.856;19.030;2022-11-20T09:21:12;101196.91;;;0.01;88.15
33949;BME280;20229;49.856;19.030;2022-11-20T09:26:16;101192.34;;;0.14;86.63
33949;BME280;20229;49.856;19.030;2022-11-20T09:31:34;101195.90;;;0.22;86.34
33949;BME280;20229;49.856;19.030;2022-11-20T09:36:38;101200.29;;;0.34;86.59
33949;BME280;20229;49.856;19.030;2022-11-20T09:57:51;101184.81;;;0.68;84.41
33949;BME280;20229;49.856;19.030;2022-11-20T10:03:01;101183.83;;;0.77;83.08
33949;BME280;20229;49.856;19.030;2022-11-20T10:13:34;101181.00;;;0.93;82.69
33949;BME280;20229;49.856;19.030;2022-11-20T10:24:08;101163.76;;;1.13;82.26
33949;BME280;20229;49.856;19.030;2022-11-20T10:29:16;101159.22;;;1.21;81.92
33949;BME280;20229;49.856;19.030;2022-11-20T10:45:13;101134.83;;;1.38;80.39
33949;BME280;20229;49.856;19.030;2022-11-20T10:50:17;101135.51;;;1.54;79.88
33949;BME280;20229;49.856;19.030;2022-11-20T11:00:36;101131.66;;;1.73;79.37
33949;BME280;20229;49.856;19.030;2022-11-20T11:05:55;101119.01;;;1.81;80.18
33949;BME280;20229;49.856;19.030;2022-11-20T11:11:00;101108.08;;;1.92;78.28
33949;BME280;20229;49.856;19.030;2022-11-20T11:16:05;101105.31;;;1.97;78.69
33949;BME280;20229;49.856;19.030;2022-11-20T11:21:24;101106.04;;;2.08;78.69
33949;BME280;20229;49.856;19.030;2022-11-20T11:26:30;101105.91;;;2.17;78.75
33949;BME280;20229;49.856;19.030;2022-11-20T11:31:34;101118.36;;;2.24;78.74
33949;BME280;20229;49.856;19.030;2022-11-20T11:36:57;101125.56;;;2.22;78.62
33949;BME280;20229;49.856;19.030;2022-11-20T11:42:01;101118.32;;;2.27;78.33
33949;BME280;20229;49.856;19.030;2022-11-20T11:52:26;101116.30;;;2.42;78.02
33949;BME280;20229;49.856;19.030;2022-11-20T11:57:46;101100.08;;;2.45;77.39
33949;BME280;20229;49.856;19.030;2022-11-20T12:18:37;101074.41;;;2.73;77.86
33949;BME280;20229;49.856;19.030;2022-11-20T12:29:06;101053.63;;;2.80;77.04
33949;BME280;20229;49.856;19.030;2022-11-20T12:34:39;101051.66;;;2.88;77.30
33949;BME280;20229;49.856;19.030;2022-11-20T12:39:35;101047.21;;;2.85;77.65
33949;BME280;20229;49.856;19.030;2022-11-20T12:50:23;101032.63;;;2.96;77.74
33949;BME280;20229;49.856;19.030;2022-11-20T12:56:17;101020.90;;;2.98;77.56
33949;BME280;20229;49.856;19.030;2022-11-20T13:00:43;101016.45;;;2.96;77.30
33949;BME280;20229;49.856;19.030;2022-11-20T13:21:39;100987.77;;;2.92;78.47
33949;BME280;20229;49.856;19.030;2022-11-20T13:26:43;100991.52;;;2.84;78.67
33949;BME280;20229;49.856;19.030;2022-11-20T13:31:48;100988.21;;;2.70;79.14
33949;BME280;20229;49.856;19.030;2022-11-20T13:36:53;100976.77;;;2.57;79.45
33949;BME280;20229;49.856;19.030;2022-11-20T13:42:43;100972.56;;;2.43;79.98
33949;BME280;20229;49.856;19.030;2022-11-20T13:47:21;100974.53;;;2.33;80.66
33949;BME280;20229;49.856;19.030;2022-11-20T14:03:09;100956.38;;;1.95;82.29
33949;BME280;20229;49.856;19.030;2022-11-20T14:08:42;100952.91;;;1.88;82.59
33949;BME280;20229;49.856;19.030;2022-11-20T14:13:35;100968.27;;;1.81;83.02
33949;BME280;20229;49.856;19.030;2022-11-20T14:18:39;100971.75;;;1.86;83.34
33949;BME280;20229;49.856;19.030;2022-11-20T14:23:42;100979.03;;;1.81;83.50
33949;BME280;20229;49.856;19.030;2022-11-20T14:28:49;100977.14;;;1.86;83.51
33949;BME280;20229;49.856;19.030;2022-11-20T14:34:05;100960.98;;;1.88;83.88
33949;BME280;20229;49.856;19.030;2022-11-20T14:39:11;100959.13;;;1.91;83.92
33949;BME280;20229;49.856;19.030;2022-11-20T14:44:33;100958.29;;;1.88;84.33
33949;BME280;20229;49.856;19.030;2022-11-20T14:49:37;100949.20;;;1.94;84.46
33949;BME280;20229;49.856;19.030;2022-11-20T14:54:58;100938.52;;;1.89;84.94
33949;BME280;20229;49.856;19.030;2022-11-20T15:05:25;100931.42;;;1.85;85.51
33949;BME280;20229;49.856;19.030;2022-11-20T15:10:29;100923.26;;;1.89;85.71
33949;BME280;20229;49.856;19.030;2022-11-20T15:15:50;100924.23;;;1.85;86.06
33949;BME280;20229;49.856;19.030;2022-11-20T15:20:56;100926.88;;;1.88;85.80
33949;BME280;20229;49.856;19.030;2022-11-20T15:31:29;100933.10;;;1.90;86.07
33949;BME280;20229;49.856;19.030;2022-11-20T15:36:42;100934.07;;;1.88;86.21
33949;BME280;20229;49.856;19.030;2022-11-20T15:41:46;100927.66;;;1.94;86.41
33949;BME280;20229;49.856;19.030;2022-11-20T15:47:07;100929.52;;;1.90;86.84
33949;BME280;20229;49.856;19.030;2022-11-20T15:52:13;100931.23;;;1.96;86.73
33949;BME280;20229;49.856;19.030;2022-11-20T15:57:33;100924.97;;;1.94;87.02
33949;BME280;20229;49.856;19.030;2022-11-20T16:02:36;100929.38;;;1.98;86.88
33949;BME280;20229;49.856;19.030;2022-11-20T16:07:59;100928.53;;;1.96;87.17
33949;BME280;20229;49.856;19.030;2022-11-20T16:13:03;100923.99;;;1.98;87.22
33949;BME280;20229;49.856;19.030;2022-11-20T16:18:25;100928.59;;;1.93;87.43
33949;BME280;20229;49.856;19.030;2022-11-20T16:23:29;100927.60;;;1.98;87.51
33949;BME280;20229;49.856;19.030;2022-11-20T16:28:51;100925.85;;;1.96;87.72
33949;BME280;20229;49.856;19.030;2022-11-20T16:33:56;100937.46;;;1.98;88.12
33949;BME280;20229;49.856;19.030;2022-11-20T16:39:17;100929.47;;;1.93;88.04
33949;BME280;20229;49.856;19.030;2022-11-20T16:44:21;100933.88;;;1.97;87.86
33949;BME280;20229;49.856;19.030;2022-11-20T16:49:43;100922.34;;;1.90;88.08
33949;BME280;20229;49.856;19.030;2022-11-20T16:54:47;100924.14;;;1.90;88.13
33949;BME280;20229;49.856;19.030;2022-11-20T17:00:10;100927.89;;;1.81;88.49
33949;BME280;20229;49.856;19.030;2022-11-20T17:05:14;100934.98;;;1.85;88.70
33949;BME280;20229;49.856;19.030;2022-11-20T17:10:36;100931.42;;;1.83;88.83
33949;BME280;20229;49.856;19.030;2022-11-20T17:15:39;100934.95;;;1.88;88.53
33949;BME280;20229;49.856;19.030;2022-11-20T17:21:03;100933.33;;;1.78;88.72
33949;BME280;20229;49.856;19.030;2022-11-20T17:26:12;100938.74;;;1.75;88.91
33949;BME280;20229;49.856;19.030;2022-11-20T17:31:30;100929.98;;;1.62;89.05
33949;BME280;20229;49.856;19.030;2022-11-20T17:36:33;100913.91;;;1.58;89.02
33949;BME280;20229;49.856;19.030;2022-11-20T17:41:54;100934.73;;;1.47;89.19
33949;BME280;20229;49.856;19.030;2022-11-20T17:47:10;100936.62;;;1.41;89.12
33949;BME280;20229;49.856;19.030;2022-11-20T17:52:21;100926.02;;;1.29;89.37
33949;BME280;20229;49.856;19.030;2022-11-20T17:57:25;100923.38;;;1.26;89.24
33949;BME280;20229;49.856;19.030;2022-11-20T18:02:47;100901.91;;;1.23;90.04
33949;BME280;20229;49.856;19.030;2022-11-20T18:07:52;100900.02;;;1.30;89.77
33949;BME280;20229;49.856;19.030;2022-11-20T18:13:13;100897.41;;;1.24;89.84
33949;BME280;20229;49.856;19.030;2022-11-20T18:18:16;100895.63;;;1.24;89.71
33949;BME280;20229;49.856;19.030;2022-11-20T18:23:39;100905.55;;;1.21;90.10
33949;BME280;20229;49.856;19.030;2022-11-20T18:28:43;100899.17;;;1.28;90.03
33949;BME280;20229;49.856;19.030;2022-11-20T18:34:05;100893.84;;;1.23;90.14
33949;BME280;20229;49.856;19.030;2022-11-20T18:39:16;100888.41;;;1.26;90.45
33949;BME280;20229;49.856;19.030;2022-11-20T18:44:32;100891.15;;;1.23;90.52
33949;BME280;20229;49.856;19.030;2022-11-20T18:49:49;100891.99;;;1.28;90.53
33949;BME280;20229;49.856;19.030;2022-11-20T18:54:57;100887.57;;;1.24;90.76
33949;BME280;20229;49.856;19.030;2022-11-20T19:00:03;100892.02;;;1.25;90.42
33949;BME280;20229;49.856;19.030;2022-11-20T19:05:23;100886.78;;;1.16;90.73
33949;BME280;20229;49.856;19.030;2022-11-20T19:10:27;100874.16;;;1.21;90.75
33949;BME280;20229;49.856;19.030;2022-11-20T19:15:49;100884.09;;;1.16;91.01
33949;BME280;20229;49.856;19.030;2022-11-20T19:20:52;100878.66;;;1.19;91.02
33949;BME280;20229;49.856;19.030;2022-11-20T19:26:16;100874.25;;;1.15;91.33
33949;BME280;20229;49.856;19.030;2022-11-20T19:31:22;100864.38;;;1.17;91.13
33949;BME280;20229;49.856;19.030;2022-11-20T19:36:41;100851.06;;;1.08;91.43
33949;BME280;20229;49.856;19.030;2022-11-20T19:41:45;100852.79;;;1.12;91.65
33949;BME280;20229;49.856;19.030;2022-11-20T19:47:07;100846.48;;;1.13;91.93
33949;BME280;20229;49.856;19.030;2022-11-20T19:52:11;100848.20;;;1.18;91.97
33949;BME280;20229;49.856;19.030;2022-11-20T19:57:33;100854.51;;;1.16;91.95
33949;BME280;20229;49.856;19.030;2022-11-20T20:02:37;100847.28;;;1.21;91.92
33949;BME280;20229;49.856;19.030;2022-11-20T20:07:59;100863.46;;;1.16;92.04
33949;BME280;20229;49.856;19.030;2022-11-20T20:13:03;100852.66;;;1.21;92.37
33949;BME280;20229;49.856;19.030;2022-11-20T20:18:28;100846.40;;;1.21;92.28
33949;BME280;20229;49.856;19.030;2022-11-20T20:23:32;100845.43;;;1.23;92.29
33949;BME280;20229;49.856;19.030;2022-11-20T20:28:51;100843.75;;;1.16;92.11
33949;BME280;20229;49.856;19.030;2022-11-20T20:33:56;100866.14;;;1.16;91.95
33949;BME280;20229;49.856;19.030;2022-11-20T20:39:17;100858.16;;;1.12;92.26
33949;BME280;20229;49.856;19.030;2022-11-20T20:44:22;100859.16;;;1.06;92.09
33949;BME280;20229;49.856;19.030;2022-11-20T20:49:43;100855.63;;;1.03;92.71
33949;BME280;20229;49.856;19.030;2022-11-20T20:54:47;100863.62;;;1.07;92.85
33949;BME280;20229;49.856;19.030;2022-11-20T21:00:10;100872.53;;;1.11;93.18
33949;BME280;20229;49.856;19.030;2022-11-20T21:05:14;100860.73;;;1.21;93.15
33949;BME280;20229;49.856;19.030;2022-11-20T21:10:35;100866.05;;;1.24;93.39
33949;BME280;20229;49.856;19.030;2022-11-20T21:15:40;100861.43;;;1.32;93.34
33949;BME280;20229;49.856;19.030;2022-11-20T21:21:06;100857.82;;;1.33;93.49
33949;BME280;20229;49.856;19.030;2022-11-20T21:26:22;100858.66;;;1.38;93.61
33949;BME280;20229;49.856;19.030;2022-11-20T21:31:28;100854.16;;;1.37;93.56
33949;BME280;20229;49.856;19.030;2022-11-20T21:36:33;100855.84;;;1.44;93.78
33949;BME280;20229;49.856;19.030;2022-11-20T21:41:54;100852.30;;;1.42;93.89
33949;BME280;20229;49.856;19.030;2022-11-20T21:46:57;100867.44;;;1.48;94.06
33949;BME280;20229;49.856;19.030;2022-11-20T21:52:20;100871.93;;;1.48;94.08
33949;BME280;20229;49.856;19.030;2022-11-20T21:57:23;100878.98;;;1.55;94.13
33949;BME280;20229;49.856;19.030;2022-11-20T22:02:46;100878.10;;;1.56;94.23
33949;BME280;20229;49.856;19.030;2022-11-20T22:07:50;100885.11;;;1.64;94.05
33949;BME280;20229;49.856;19.030;2022-11-20T22:13:12;100901.30;;;1.63;94.33
33949;BME280;20229;49.856;19.030;2022-11-20T22:18:27;100898.48;;;1.69;94.54
33949;BME280;20229;49.856;19.030;2022-11-20T22:23:38;100899.34;;;1.71;94.44
33949;BME280;20229;49.856;19.030;2022-11-20T22:28:45;100896.52;;;1.80;94.33
33949;BME280;20229;49.856;19.030;2022-11-20T22:34:04;100909.93;;;1.82;94.59
33949;BME280;20229;49.856;19.030;2022-11-20T22:39:08;100903.56;;;1.87;94.50
33949;BME280;20229;49.856;19.030;2022-11-20T22:44:30;100904.45;;;1.88;94.63
33949;BME280;20229;49.856;19.030;2022-11-20T22:49:41;100919.58;;;1.94;94.70
33949;BME280;20229;49.856;19.030;2022-11-20T22:55:08;100920.55;;;1.91;94.66
33949;BME280;20229;49.856;19.030;2022-11-20T23:00:12;100918.71;;;1.93;94.59
33949;BME280;20229;49.856;19.030;2022-11-20T23:05:33;100920.59;;;1.88;94.63
33949;BME280;20229;49.856;19.030;2022-11-20T23:10:37;100923.26;;;1.89;94.74
33949;BME280;20229;49.856;19.030;2022-11-20T23:21:15;100891.00;;;1.86;94.39
33949;BME280;20229;49.856;19.030;2022-11-20T23:26:31;100894.71;;;1.79;94.85
33949;BME280;20229;49.856;19.030;2022-11-20T23:31:35;100878.48;;;1.85;94.92
33949;BME280;20229;49.856;19.030;2022-11-20T23:36:50;100872.24;;;1.82;94.86
33949;BME280;20229;49.856;19.030;2022-11-20T23:41:54;100879.29;;;1.89;94.84
33949;BME280;20229;49.856;19.030;2022-11-20T23:47:16;100870.30;;;1.91;95.02
33949;BME280;20229;49.856;19.030;2022-11-20T23:52:20;100862.02;;;2.01;95.44
33949;BME280;20229;49.856;19.030;2022-11-20T23:57:42;100865.53;;;2.06;94.94
